Time;durP1;ratioP1;P1;durP2;ratioP2;P2;SDS_P1;SDS_P2;PMS_P1;PMS_P2;Temp;Humidity;BMP_temperature;BMP_pressure;BME280_temperature;BME280_humidity;BME280_pressure;Samples;Min_cycle;Max_cycle;Signal;HPM_P1;HPM_P2
2022/04/23 00:01:15;;;;;;;10.82;7.18;;;7.40;99.90;;;;;;5035761;28;20425;-81
2022/04/23 00:03:41;;;;;;;9.32;6.85;;;7.40;99.90;;;;;;5035912;28;20381;-81
2022/04/23 00:06:07;;;;;;;10.73;7.72;;;7.40;99.90;;;;;;5035476;28;20070;-81
2022/04/23 00:08:33;;;;;;;12.00;8.02;;;7.40;99.90;;;;;;5051076;28;20029;-81
2022/04/23 00:10:59;;;;;;;10.07;7.63;;;7.40;99.90;;;;;;5034985;28;20474;-81
2022/04/23 00:13:25;;;;;;;10.88;8.02;;;7.40;99.90;;;;;;5035084;28;20049;-81
2022/04/23 00:15:51;;;;;;;10.68;7.68;;;7.30;99.90;;;;;;5035310;28;20029;-81
2022/04/23 00:18:18;;;;;;;11.38;8.00;;;7.30;99.90;;;;;;5035285;28;20100;-81
2022/04/23 00:20:46;;;;;;;12.73;8.13;;;7.30;99.90;;;;;;5034064;28;20567;-81
2022/04/23 00:23:12;;;;;;;14.77;8.38;;;7.30;99.90;;;;;;5035452;28;20377;-81
2022/04/23 00:25:39;;;;;;;12.27;8.32;;;7.30;99.90;;;;;;5050311;28;20033;-81
2022/04/23 00:28:05;;;;;;;13.27;9.05;;;7.30;99.90;;;;;;5050464;28;20025;-81
2022/04/23 00:30:32;;;;;;;12.95;9.05;;;7.30;99.90;;;;;;5033669;28;20029;-81
2022/04/23 00:33:00;;;;;;;16.27;10.00;;;7.30;99.90;;;;;;5035049;28;20486;-81
2022/04/23 00:35:26;;;;;;;12.55;8.70;;;7.30;99.90;;;;;;5050173;28;20030;-81
2022/04/23 00:37:52;;;;;;;14.25;9.32;;;7.20;99.90;;;;;;5035209;28;20029;-81
2022/04/23 00:40:20;;;;;;;12.13;8.95;;;7.20;99.90;;;;;;5034713;28;20120;-81
2022/04/23 00:42:52;;;;;;;16.38;9.75;;;7.20;99.90;;;;;;5033695;28;20478;-81
2022/04/23 00:45:21;;;;;;;13.80;8.38;;;7.20;99.90;;;;;;5035151;28;20585;-81
2022/04/23 00:47:47;;;;;;;12.63;8.93;;;7.10;99.90;;;;;;5033726;28;20072;-81
2022/04/23 00:50:13;;;;;;;12.65;8.40;;;7.10;99.90;;;;;;5034866;28;20080;-81
2022/04/23 00:52:39;;;;;;;13.82;9.60;;;7.00;99.90;;;;;;5050136;28;20028;-81
2022/04/23 00:55:07;;;;;;;13.88;9.65;;;6.90;99.90;;;;;;5049954;28;20478;-81
2022/04/23 00:57:34;;;;;;;14.13;9.60;;;6.90;99.90;;;;;;5034684;28;20025;-81
2022/04/23 01:00:06;;;;;;;13.68;9.82;;;6.80;99.90;;;;;;5034886;28;20025;-81
2022/04/23 01:02:32;;;;;;;17.58;10.90;;;6.70;99.90;;;;;;5050318;28;20032;-81
2022/04/23 01:04:58;;;;;;;15.90;10.13;;;6.70;99.90;;;;;;5050093;28;20505;-81
2022/04/23 01:07:24;;;;;;;13.30;9.27;;;6.70;99.90;;;;;;5036314;28;20029;-81
2022/04/23 01:09:52;;;;;;;13.43;9.02;;;6.70;99.90;;;;;;5035408;28;20056;-81
2022/04/23 01:12:19;;;;;;;15.38;10.13;;;6.70;99.90;;;;;;5049796;28;20087;-81
2022/04/23 01:15:03;;;;;;;13.30;8.80;;;6.60;99.90;;;;;;5049546;28;20032;-81
2022/04/23 01:17:29;;;;;;;14.27;9.18;;;6.60;99.90;;;;;;5034333;28;20498;-81
2022/04/23 01:19:55;;;;;;;12.45;8.77;;;6.60;99.90;;;;;;5034073;28;20033;-81
2022/04/23 01:22:23;;;;;;;13.70;9.30;;;6.60;99.90;;;;;;5034206;28;20014;-81
2022/04/23 01:24:51;;;;;;;15.93;9.48;;;6.60;99.90;;;;;;5034044;28;20017;-81
2022/04/23 01:27:17;;;;;;;13.00;9.15;;;6.50;99.90;;;;;;5034702;28;20063;-81
2022/04/23 01:29:42;;;;;;;13.85;9.25;;;6.50;99.90;;;;;;5034500;28;20029;-81
2022/04/23 01:32:08;;;;;;;14.38;9.13;;;6.50;99.90;;;;;;5033974;28;20554;-81
2022/04/23 01:34:34;;;;;;;15.27;10.43;;;6.50;99.90;;;;;;5034383;28;20390;-81
2022/04/23 01:36:59;;;;;;;14.85;9.25;;;6.50;99.90;;;;;;5034382;28;20386;-81
2022/04/23 01:39:25;;;;;;;13.15;9.02;;;6.40;99.90;;;;;;5034228;28;20056;-81
2022/04/23 01:41:51;;;;;;;14.18;9.20;;;6.40;99.90;;;;;;5034688;28;20032;-81
2022/04/23 01:44:17;;;;;;;13.32;9.15;;;6.40;99.90;;;;;;5052635;28;20048;-80
2022/04/23 01:46:42;;;;;;;12.98;8.80;;;6.30;99.90;;;;;;5053847;28;20022;-81
2022/04/23 01:49:08;;;;;;;16.23;10.75;;;6.40;99.90;;;;;;5053408;28;20036;-81
2022/04/23 01:51:33;;;;;;;21.10;11.85;;;6.30;99.90;;;;;;5053793;28;20093;-81
2022/04/23 01:53:59;;;;;;;22.70;13.43;;;6.40;99.90;;;;;;5054303;28;20033;-81
2022/04/23 01:56:25;;;;;;;21.52;13.25;;;6.30;99.90;;;;;;5069386;28;20029;-81
2022/04/23 01:58:51;;;;;;;21.13;11.93;;;6.30;99.90;;;;;;5054188;28;20052;-81
2022/04/23 02:01:17;;;;;;;16.90;10.98;;;6.30;99.90;;;;;;5053695;28;20022;-81
2022/04/23 02:03:43;;;;;;;17.27;10.45;;;6.30;99.90;;;;;;5046466;28;20025;-81
2022/04/23 02:06:09;;;;;;;13.70;9.55;;;6.30;99.90;;;;;;5052886;28;20002;-81
2022/04/23 02:08:34;;;;;;;14.35;9.05;;;6.20;99.90;;;;;;5048827;28;20053;-81
2022/04/23 02:11:00;;;;;;;16.25;9.45;;;6.20;99.90;;;;;;5043134;28;20064;-81
2022/04/23 02:13:30;;;;;;;13.07;9.18;;;6.20;99.90;;;;;;5042895;28;20021;-81
2022/04/23 02:15:56;;;;;;;12.88;9.13;;;6.10;99.90;;;;;;5044210;28;20025;-81
2022/04/23 02:18:22;;;;;;;14.15;9.48;;;6.10;99.90;;;;;;5045125;28;20104;-81
2022/04/23 02:20:48;;;;;;;13.75;9.55;;;6.10;99.90;;;;;;5044372;28;20022;-81
2022/04/23 02:23:14;;;;;;;13.35;9.65;;;6.00;99.90;;;;;;5059440;28;20022;-82
2022/04/23 02:25:40;;;;;;;13.88;9.55;;;6.00;99.90;;;;;;5043521;28;20025;-81
2022/04/23 02:28:05;;;;;;;13.90;9.23;;;6.00;99.90;;;;;;5043342;28;20021;-81
2022/04/23 02:30:34;;;;;;;14.23;10.02;;;6.00;99.90;;;;;;5043106;28;20025;-81
2022/04/23 02:33:00;;;;;;;15.13;9.68;;;5.90;99.90;;;;;;5058365;28;20121;-81
2022/04/23 02:35:26;;;;;;;14.18;9.55;;;5.90;99.90;;;;;;5044624;28;20417;-81
2022/04/23 02:38:02;;;;;;;12.05;8.73;;;5.80;99.90;;;;;;5062350;28;20029;-81
2022/04/23 02:40:28;;;;;;;15.23;10.10;;;5.80;99.90;;;;;;5061971;28;20033;-81
2022/04/23 02:42:56;;;;;;;14.07;9.80;;;5.80;99.90;;;;;;5046221;28;20025;-81
2022/04/23 02:45:24;;;;;;;15.23;10.23;;;5.80;99.90;;;;;;5045198;28;20147;-81
2022/04/23 02:47:57;;;;;;;18.52;11.45;;;5.80;99.90;;;;;;5061306;28;20620;-81
2022/04/23 02:50:28;;;;;;;14.63;10.07;;;5.80;99.90;;;;;;5044255;28;20033;-81
2022/04/23 02:52:55;;;;;;;13.73;9.32;;;5.70;99.90;;;;;;5045391;28;20385;-81
2022/04/23 02:55:22;;;;;;;13.95;9.93;;;5.80;99.90;;;;;;5044171;28;20056;-81
2022/04/23 02:57:48;;;;;;;16.63;9.68;;;5.80;99.90;;;;;;5043617;28;20075;-81
2022/04/23 03:00:14;;;;;;;15.07;10.05;;;5.80;99.90;;;;;;5043821;28;20025;-81
2022/04/23 03:02:40;;;;;;;14.77;10.40;;;5.70;99.90;;;;;;5058744;28;20028;-81
2022/04/23 03:05:09;;;;;;;17.00;10.63;;;5.70;99.90;;;;;;5058454;28;20028;-81
2022/04/23 03:07:35;;;;;;;15.18;10.85;;;5.70;99.90;;;;;;5043520;28;20482;-81
2022/04/23 03:10:15;;;;;;;19.67;12.57;;;5.80;99.90;;;;;;5057961;28;20049;-81
2022/04/23 03:12:41;;;;;;;17.55;11.50;;;5.80;99.90;;;;;;5058080;28;20025;-81
2022/04/23 03:15:09;;;;;;;14.88;10.30;;;5.70;99.90;;;;;;5041902;28;20025;-81
2022/04/23 03:17:36;;;;;;;16.80;11.02;;;5.70;99.90;;;;;;5057101;28;20397;-81
2022/04/23 03:20:07;;;;;;;16.75;10.75;;;5.70;99.90;;;;;;5057205;28;20457;-81
2022/04/23 03:22:33;;;;;;;17.88;10.50;;;5.70;99.90;;;;;;5042033;28;20025;-81
2022/04/23 03:24:59;;;;;;;18.27;11.85;;;5.70;99.90;;;;;;5040488;28;20367;-81
2022/04/23 03:27:25;;;;;;;16.67;10.38;;;5.70;99.90;;;;;;5039866;28;20033;-81
2022/04/23 03:29:51;;;;;;;17.25;10.70;;;5.60;99.90;;;;;;5041246;28;20049;-81
2022/04/23 03:32:17;;;;;;;13.77;9.73;;;5.60;99.90;;;;;;5056776;28;20030;-81
2022/04/23 03:34:43;;;;;;;16.10;10.63;;;5.60;99.90;;;;;;5056214;28;20052;-81
2022/04/23 03:37:09;;;;;;;17.00;11.15;;;5.70;99.90;;;;;;5041131;28;20018;-81
2022/04/23 03:39:36;;;;;;;17.95;11.40;;;5.70;99.90;;;;;;5040310;28;20032;-81
2022/04/23 03:42:02;;;;;;;16.38;11.40;;;5.70;99.90;;;;;;5040787;28;20017;-81
2022/04/23 03:44:31;;;;;;;15.27;10.73;;;5.70;99.90;;;;;;5040171;28;20022;-81
2022/04/23 03:47:03;;;;;;;15.27;10.65;;;5.70;99.90;;;;;;5040528;28;20056;-81
2022/04/23 03:49:30;;;;;;;17.50;11.15;;;5.70;99.90;;;;;;5039421;28;20053;-81
2022/04/23 03:51:56;;;;;;;19.05;11.70;;;5.80;99.90;;;;;;5055358;28;20026;-81
2022/04/23 03:54:22;;;;;;;17.67;11.80;;;5.70;99.90;;;;;;5040288;28;20116;-81
2022/04/23 03:56:48;;;;;;;17.30;10.80;;;5.70;99.90;;;;;;5039029;28;20463;-81
2022/04/23 03:59:15;;;;;;;16.55;11.13;;;5.70;99.90;;;;;;5050857;28;20025;-81
2022/04/23 04:01:41;;;;;;;18.52;12.40;;;5.80;99.90;;;;;;5050923;28;20029;-81
2022/04/23 04:04:07;;;;;;;17.00;11.75;;;5.80;99.90;;;;;;5051880;28;20022;-80
2022/04/23 04:06:33;;;;;;;18.50;11.18;;;5.70;99.90;;;;;;5055808;28;20017;-80
2022/04/23 04:08:59;;;;;;;17.45;10.95;;;5.80;99.90;;;;;;5053390;28;20055;-80
2022/04/23 04:11:24;;;;;;;16.67;10.90;;;5.80;99.90;;;;;;5054009;28;20079;-80
2022/04/23 04:13:50;;;;;;;16.17;10.68;;;5.80;99.90;;;;;;5053557;28;20025;-80
2022/04/23 04:16:18;;;;;;;15.50;10.60;;;5.70;99.90;;;;;;5054950;28;20466;-81
2022/04/23 04:18:45;;;;;;;16.33;10.57;;;5.70;99.90;;;;;;5054419;28;20045;-80
2022/04/23 04:21:13;;;;;;;16.13;11.32;;;5.80;99.90;;;;;;5054773;28;20496;-81
2022/04/23 04:23:39;;;;;;;15.30;10.32;;;5.80;99.90;;;;;;5054487;28;20041;-80
2022/04/23 04:26:07;;;;;;;16.73;10.80;;;5.80;99.90;;;;;;5053948;28;20028;-80
2022/04/23 04:28:33;;;;;;;17.10;11.45;;;5.70;99.90;;;;;;5054311;28;20062;-81
2022/04/23 04:33:42;;;;;;;16.35;10.45;;;5.80;99.90;;;;;;5054650;28;20468;-79
2022/04/23 04:36:08;;;;;;;15.95;10.70;;;5.80;99.90;;;;;;5054768;28;20052;-78
2022/04/23 04:38:35;;;;;;;19.67;12.15;;;5.80;99.90;;;;;;5054909;28;20040;-78
2022/04/23 04:41:01;;;;;;;23.10;14.05;;;5.90;99.90;;;;;;5053149;28;20040;-78
2022/04/23 04:43:27;;;;;;;24.25;15.43;;;5.90;99.90;;;;;;5055928;28;20382;-77
2022/04/23 04:45:52;;;;;;;21.88;14.73;;;5.90;99.90;;;;;;5054811;28;20025;-78
2022/04/23 04:48:18;;;;;;;21.08;14.18;;;6.00;99.90;;;;;;5055229;28;20025;-79
2022/04/23 04:50:44;;;;;;;20.50;13.18;;;6.00;99.90;;;;;;5054691;28;20029;-79
2022/04/23 04:53:10;;;;;;;18.65;12.60;;;6.00;99.90;;;;;;5055689;28;20029;-79
2022/04/23 04:55:36;;;;;;;17.83;12.85;;;6.00;99.90;;;;;;5054456;28;20128;-79
2022/04/23 04:58:03;;;;;;;18.13;12.25;;;6.10;99.90;;;;;;5054947;28;20059;-79
2022/04/23 05:00:30;;;;;;;15.50;10.55;;;6.10;99.90;;;;;;5053077;28;20062;-79
2022/04/23 05:02:56;;;;;;;15.95;10.80;;;6.20;99.90;;;;;;5055323;28;20028;-79
2022/04/23 05:05:22;;;;;;;13.88;9.98;;;6.20;99.90;;;;;;5053999;28;20017;-78
2022/04/23 05:07:48;;;;;;;16.58;10.18;;;6.20;99.90;;;;;;5055358;28;20025;-78
2022/04/23 05:10:13;;;;;;;15.23;9.85;;;6.30;99.90;;;;;;5052946;28;20040;-78
2022/04/23 05:12:39;;;;;;;14.75;9.90;;;6.30;99.90;;;;;;5054831;28;20031;-79
2022/04/23 05:15:05;;;;;;;13.65;9.18;;;6.30;99.90;;;;;;5054263;28;20025;-78
2022/04/23 05:17:31;;;;;;;13.45;9.38;;;6.40;99.90;;;;;;5054939;28;20081;-79
2022/04/23 05:19:57;;;;;;;15.02;10.10;;;6.40;99.90;;;;;;5054910;28;20052;-79
2022/04/23 05:22:22;;;;;;;14.60;9.82;;;6.40;99.90;;;;;;5055096;28;20055;-79
2022/04/23 05:24:48;;;;;;;15.13;10.10;;;6.50;99.90;;;;;;5053639;28;20473;-78
2022/04/23 05:27:14;;;;;;;15.68;9.38;;;6.50;99.90;;;;;;5055248;28;20107;-79
2022/04/23 05:29:39;;;;;;;15.60;9.88;;;6.60;99.90;;;;;;5047663;28;20397;-79
2022/04/23 05:32:06;;;;;;;13.70;9.35;;;6.60;99.90;;;;;;5055350;28;20033;-79
2022/04/23 05:34:34;;;;;;;13.40;9.30;;;6.70;99.90;;;;;;5054163;28;20024;-79
2022/04/23 05:37:00;;;;;;;15.63;10.63;;;6.70;99.90;;;;;;5035334;28;20049;-80
2022/04/23 05:39:25;;;;;;;14.25;10.45;;;6.80;99.90;;;;;;5050006;28;20033;-79
2022/04/23 05:41:51;;;;;;;18.05;11.82;;;6.80;99.90;;;;;;5057585;28;20025;-79
2022/04/23 05:44:17;;;;;;;17.20;12.40;;;6.80;99.90;;;;;;5055333;28;20017;-79
2022/04/23 05:46:42;;;;;;;18.05;12.85;;;6.90;99.90;;;;;;5048132;28;20021;-79
2022/04/23 05:49:08;;;;;;;18.50;12.05;;;6.90;99.90;;;;;;5057145;28;20029;-80
2022/04/23 05:51:34;;;;;;;19.75;13.05;;;6.90;99.90;;;;;;5056993;28;20472;-80
2022/04/23 05:54:00;;;;;;;23.45;13.52;;;7.00;99.90;;;;;;5057218;28;20032;-79
2022/04/23 05:56:26;;;;;;;22.80;15.50;;;7.00;99.90;;;;;;5057324;28;20017;-79
2022/04/23 05:58:51;;;;;;;22.85;14.48;;;7.00;99.90;;;;;;5056817;28;20465;-80
2022/04/23 06:01:17;;;;;;;24.00;15.63;;;7.10;99.90;;;;;;5055913;28;20461;-79
2022/04/23 06:03:43;;;;;;;21.17;13.43;;;7.10;99.90;;;;;;5057123;28;20021;-80
2022/04/23 06:06:08;;;;;;;23.38;14.80;;;7.10;99.90;;;;;;5056947;28;20021;-77
2022/04/23 06:08:34;;;;;;;22.98;14.98;;;7.20;99.90;;;;;;5053630;28;20017;-77
2022/04/23 06:11:00;;;;;;;19.30;12.32;;;7.20;99.90;;;;;;5056110;28;20045;-77
2022/04/23 06:13:26;;;;;;;23.73;13.60;;;7.30;99.90;;;;;;5057566;28;20543;-77
2022/04/23 06:15:52;;;;;;;27.20;15.00;;;7.30;99.90;;;;;;5057285;28;20017;-77
2022/04/23 06:18:17;;;;;;;23.73;13.85;;;7.40;99.90;;;;;;5057506;28;20048;-77
2022/04/23 06:20:43;;;;;;;26.13;15.60;;;7.40;99.90;;;;;;5057604;28;20032;-77
2022/04/23 06:23:09;;;;;;;28.55;16.02;;;7.40;99.90;;;;;;5057387;28;20032;-77
2022/04/23 06:25:35;;;;;;;25.92;14.60;;;7.40;99.90;;;;;;5057784;28;20032;-77
2022/04/23 06:28:01;;;;;;;22.83;14.32;;;7.40;99.90;;;;;;5057467;28;20053;-77
2022/04/23 06:30:27;;;;;;;23.52;13.55;;;7.40;99.90;;;;;;5057273;28;20056;-77
2022/04/23 06:32:52;;;;;;;23.92;15.27;;;7.40;99.90;;;;;;5057486;28;20508;-77
2022/04/23 06:35:18;;;;;;;27.27;15.68;;;7.50;99.90;;;;;;5057347;28;20474;-77
2022/04/23 06:37:45;;;;;;;24.27;14.85;;;7.50;99.90;;;;;;5055927;28;20029;-77
2022/04/23 06:40:11;;;;;;;24.27;14.23;;;7.60;99.90;;;;;;5056832;28;20029;-77
2022/04/23 06:42:41;;;;;;;27.45;16.65;;;7.70;99.90;;;;;;5057055;28;20032;-77
2022/04/23 06:45:07;;;;;;;28.25;17.08;;;7.70;99.90;;;;;;5057009;28;20470;-77
2022/04/23 06:47:33;;;;;;;30.33;17.80;;;7.80;99.90;;;;;;5057001;28;20036;-77
2022/04/23 06:49:59;;;;;;;32.22;18.48;;;7.90;99.90;;;;;;5055581;28;20025;-77
2022/04/23 06:52:26;;;;;;;31.70;19.25;;;7.90;99.90;;;;;;5056940;28;20021;-77
2022/04/23 06:54:54;;;;;;;36.85;21.05;;;8.00;99.90;;;;;;5057208;28;20021;-77
2022/04/23 06:57:24;;;;;;;40.88;21.30;;;8.00;99.90;;;;;;5057228;28;20025;-77
2022/04/23 06:59:50;;;;;;;41.22;22.08;;;8.10;99.90;;;;;;5056198;28;20044;-77
2022/04/23 07:02:17;;;;;;;34.55;20.88;;;8.20;99.90;;;;;;5056326;28;20052;-78
2022/04/23 07:04:43;;;;;;;40.10;23.55;;;8.30;99.90;;;;;;5056444;28;20045;-78
2022/04/23 07:07:10;;;;;;;34.60;20.92;;;8.40;99.90;;;;;;5056579;28;20018;-77
2022/04/23 07:09:38;;;;;;;35.38;21.05;;;8.50;99.90;;;;;;5056209;28;20047;-77
2022/04/23 07:12:05;;;;;;;37.78;20.00;;;8.60;99.90;;;;;;5056334;28;20105;-77
2022/04/23 07:14:32;;;;;;;32.92;20.55;;;8.80;99.90;;;;;;5056086;28;20493;-78
2022/04/23 07:16:58;;;;;;;34.50;20.15;;;8.80;99.90;;;;;;5056113;28;20071;-78
2022/04/23 07:19:24;;;;;;;31.88;19.90;;;8.90;99.90;;;;;;5054665;28;20029;-78
2022/04/23 07:21:49;;;;;;;35.60;20.88;;;9.00;99.90;;;;;;5055498;28;20188;-78
2022/04/23 07:24:16;;;;;;;35.00;21.23;;;9.10;99.90;;;;;;5055742;28;20028;-79
2022/04/23 07:26:42;;;;;;;35.13;21.60;;;9.20;99.90;;;;;;5055920;28;20512;-78
2022/04/23 07:29:10;;;;;;;35.92;21.23;;;9.30;99.90;;;;;;5055836;28;20057;-78
2022/04/23 07:31:37;;;;;;;30.73;19.60;;;9.40;99.90;;;;;;5055780;28;20025;-78
2022/04/23 07:39:33;;;;;;;27.58;17.58;;;9.90;99.90;;;;;;5055593;28;20087;-78
2022/04/23 07:41:59;;;;;;;29.92;17.95;;;10.00;99.90;;;;;;5055786;28;20031;-78
2022/04/23 07:44:25;;;;;;;25.20;16.40;;;10.20;99.90;;;;;;5055449;28;20021;-79
2022/04/23 07:46:51;;;;;;;29.85;16.60;;;10.30;99.90;;;;;;5055464;28;20033;-79
2022/04/23 07:49:18;;;;;;;27.48;16.48;;;10.40;99.90;;;;;;5055436;28;20410;-78
2022/04/23 07:51:47;;;;;;;24.00;15.70;;;10.40;99.90;;;;;;5055723;28;20067;-78
2022/04/23 07:54:14;;;;;;;22.42;14.70;;;10.50;99.90;;;;;;5054077;28;20021;-79
2022/04/23 07:56:40;;;;;;;19.98;12.73;;;10.70;99.90;;;;;;5055372;28;20050;-79
2022/04/23 07:59:05;;;;;;;17.35;10.85;;;10.80;99.90;;;;;;5055194;28;20025;-78
2022/04/23 08:01:31;;;;;;;15.73;9.77;;;10.90;99.90;;;;;;5055751;28;20489;-78
2022/04/23 08:03:57;;;;;;;16.65;10.93;;;11.10;99.90;;;;;;5055460;28;20381;-79
2022/04/23 08:06:22;;;;;;;12.52;8.80;;;11.10;99.90;;;;;;5055889;28;20025;-79
2022/04/23 08:08:48;;;;;;;15.60;9.93;;;11.30;99.90;;;;;;5055259;28;20032;-79
2022/04/23 08:11:14;;;;;;;15.65;10.10;;;11.40;99.90;;;;;;5055207;28;20021;-79
2022/04/23 08:13:40;;;;;;;19.15;12.25;;;11.50;99.90;;;;;;5055201;28;20032;-79
2022/04/23 08:16:06;;;;;;;17.38;11.18;;;11.60;99.90;;;;;;5055286;28;20111;-79
2022/04/23 08:18:31;;;;;;;17.50;11.30;;;11.80;99.90;;;;;;5053529;28;20119;-79
2022/04/23 08:20:57;;;;;;;16.00;10.40;;;11.90;99.90;;;;;;5053620;28;20024;-79
2022/04/23 08:23:23;;;;;;;16.70;11.20;;;12.00;99.90;;;;;;5053496;28;20018;-79
2022/04/23 08:25:49;;;;;;;20.80;12.38;;;12.10;99.90;;;;;;5054845;28;20465;-79
2022/04/23 08:30:59;;;;;;;14.57;9.90;;;12.40;99.90;;;;;;5055043;28;20401;-79
2022/04/23 08:33:57;;;;;;;14.38;9.25;;;12.60;99.90;;;;;;5052703;28;20378;-79
2022/04/23 08:36:11;;;;;;;14.57;9.55;;;12.70;99.90;;;;;;5054274;28;20547;-79
2022/04/23 08:38:36;;;;;;;13.18;9.38;;;12.80;99.90;;;;;;5053495;28;20025;-79
2022/04/23 08:41:04;;;;;;;12.85;8.75;;;13.00;99.90;;;;;;5054098;28;20447;-79
2022/04/23 08:43:32;;;;;;;12.35;8.80;;;13.10;99.90;;;;;;5055757;28;20087;-79
2022/04/23 08:46:01;;;;;;;13.45;9.23;;;13.20;99.90;;;;;;5054706;28;20023;-79
2022/04/23 08:48:29;;;;;;;14.85;10.50;;;13.40;99.90;;;;;;5054267;28;20021;-79
2022/04/23 08:50:59;;;;;;;12.32;9.38;;;13.50;99.90;;;;;;5054304;28;20029;-79
2022/04/23 08:53:27;;;;;;;15.45;9.63;;;13.50;99.90;;;;;;5054881;28;20070;-79
2022/04/23 08:55:53;;;;;;;15.00;9.60;;;13.50;99.90;;;;;;5054526;28;20021;-79
2022/04/23 08:58:20;;;;;;;13.82;8.52;;;13.70;99.90;;;;;;5056405;28;20040;-79
2022/04/23 09:00:45;;;;;;;12.75;8.32;;;13.80;99.90;;;;;;5054342;28;20054;-79
2022/04/23 09:03:17;;;;;;;10.63;7.82;;;13.90;99.90;;;;;;5054081;28;20017;-79
2022/04/23 09:05:43;;;;;;;12.50;8.05;;;14.10;99.90;;;;;;5054164;28;20013;-79
2022/04/23 09:08:10;;;;;;;8.02;5.97;;;14.10;99.80;;;;;;5054591;28;20079;-79
2022/04/23 09:10:44;;;;;;;8.32;5.43;;;14.20;99.30;;;;;;5054476;28;20068;-79
2022/04/23 09:13:10;;;;;;;7.53;5.10;;;14.30;98.50;;;;;;5054036;28;20397;-79
2022/04/23 09:24:10;;;;;;;5.45;3.70;;;15.10;95.60;;;;;;5054340;28;20070;-79
2022/04/23 09:26:36;;;;;;;5.95;4.05;;;15.30;95.00;;;;;;5054875;28;20028;-79
2022/04/23 09:29:13;;;;;;;6.35;4.30;;;15.50;94.60;;;;;;5054242;28;20035;-79
2022/04/23 09:31:39;;;;;;;5.47;4.00;;;15.70;93.50;;;;;;5053827;28;20040;-79
2022/04/23 09:34:15;;;;;;;6.88;4.82;;;15.80;92.50;;;;;;5053777;28;20033;-79
2022/04/23 09:36:48;;;;;;;5.78;3.83;;;15.90;92.40;;;;;;5053837;28;20491;-79
2022/04/23 09:39:13;;;;;;;5.60;4.18;;;16.00;92.00;;;;;;5053618;28;20481;-79
2022/04/23 09:41:39;;;;;;;7.45;4.07;;;16.10;91.70;;;;;;5052344;28;20036;-79
2022/04/23 09:44:09;;;;;;;6.68;4.03;;;16.20;91.30;;;;;;5053437;28;20017;-79
2022/04/23 09:47:01;;;;;;;6.40;4.10;;;16.40;91.00;;;;;;5053822;28;20075;-79
2022/04/23 09:49:27;;;;;;;5.25;4.13;;;16.60;90.40;;;;;;5050343;28;20259;-79
2022/04/23 09:52:07;;;;;;;5.82;4.03;;;16.70;90.40;;;;;;5053784;28;20074;-79
2022/04/23 09:54:35;;;;;;;4.57;3.15;;;16.70;87.70;;;;;;5053694;28;20039;-79
2022/04/23 09:57:01;;;;;;;5.25;3.15;;;16.80;87.60;;;;;;5052120;28;20469;-79
2022/04/23 09:59:27;;;;;;;5.93;3.17;;;16.90;87.80;;;;;;5053525;28;20064;-79
2022/04/23 10:01:54;;;;;;;5.10;3.58;;;17.10;88.10;;;;;;5053448;28;20112;-79
2022/04/23 10:04:25;;;;;;;4.68;3.28;;;17.30;87.60;;;;;;5051982;28;20027;-78
2022/04/23 10:06:52;;;;;;;3.85;2.95;;;17.50;86.30;;;;;;5052084;28;20408;-79
2022/04/23 10:09:21;;;;;;;4.95;2.65;;;17.70;83.50;;;;;;5054054;28;20036;-79
2022/04/23 10:11:53;;;;;;;5.05;2.50;;;17.90;82.70;;;;;;5053248;28;20048;-79
2022/04/23 10:14:20;;;;;;;2.95;2.10;;;17.90;78.80;;;;;;5053413;28;20117;-79
2022/04/23 10:16:48;;;;;;;5.20;3.00;;;18.00;80.70;;;;;;5053452;28;20021;-79
2022/04/23 10:19:15;;;;;;;2.63;2.20;;;18.00;77.80;;;;;;5053333;28;20021;-79
2022/04/23 10:22:04;;;;;;;3.40;2.22;;;17.90;80.10;;;;;;5053525;28;20100;-79
2022/04/23 10:24:51;;;;;;;3.73;2.20;;;17.90;80.70;;;;;;5053294;28;20028;-80
2022/04/23 10:27:18;;;;;;;3.10;2.10;;;17.90;80.70;;;;;;5051983;28;20345;-80
2022/04/23 10:29:45;;;;;;;;;;;17.90;80.40;;;;;;5053052;28;20117;-79
2022/04/23 10:32:10;;;;;;;;;;;18.00;80.20;;;;;;5054046;28;19904;-79
2022/04/23 10:34:36;;;;;;;;;;;18.10;78.10;;;;;;5053304;28;19905;-79
2022/04/23 10:37:14;;;;;;;;;;;18.20;77.70;;;;;;5053713;28;20066;-79
2022/04/23 10:39:40;;;;;;;;;;;18.20;73.20;;;;;;5053134;28;19916;-79
2022/04/23 10:42:06;;;;;;;;;;;18.30;74.10;;;;;;5053750;28;19905;-79
2022/04/23 10:44:32;;;;;;;;;;;18.40;71.70;;;;;;5053393;28;19905;-79
2022/04/23 10:46:58;;;;;;;;;;;18.40;70.80;;;;;;5052106;28;19905;-79
2022/04/23 10:49:25;;;;;;;;;;;18.50;72.60;;;;;;5053398;28;20372;-79
2022/04/23 10:51:54;;;;;;;;;;;18.60;70.80;;;;;;5051964;28;19905;-79
2022/04/23 10:54:40;;;;;;;;;;;18.70;68.30;;;;;;5053180;28;19904;-79
2022/04/23 10:57:09;;;;;;;;;;;18.90;64.60;;;;;;5048463;28;19904;-79
2022/04/23 10:59:42;;;;;;;;;;;19.00;65.40;;;;;;5057213;28;19912;-79
2022/04/23 11:02:13;;;;;;;;;;;19.10;65.90;;;;;;5056879;28;19916;-79
2022/04/23 11:13:29;;;;;;;;;;;19.30;62.00;;;;;;5056477;28;19958;-79
2022/04/23 11:16:11;;;;;;;;;;;19.40;62.60;;;;;;5056670;28;20316;-79
2022/04/23 11:18:38;;;;;;;;;;;19.40;61.40;;;;;;5055171;28;19905;-79
2022/04/23 11:21:15;;;;;;;;;;;19.50;61.30;;;;;;5055192;28;19911;-79
2022/04/23 11:23:45;;;;;;;;;;;19.60;61.50;;;;;;5040928;28;19916;-79
2022/04/23 11:26:13;;;;;;;;;;;19.70;62.30;;;;;;5046152;28;19940;-79
2022/04/23 11:28:42;;;;;;;;;;;19.70;62.00;;;;;;5036280;28;20361;-79
2022/04/23 11:31:09;;;;;;;;;;;19.80;62.30;;;;;;5044770;28;20399;-79
2022/04/23 11:33:34;;;;;;;;;;;20.00;64.40;;;;;;5052841;28;20288;-79
2022/04/23 11:36:00;;;;;;;;;;;20.30;58.40;;;;;;5056349;28;19904;-79
2022/04/23 11:38:27;;;;;;;;;;;20.40;60.70;;;;;;5056406;28;19905;-79
2022/04/23 11:40:52;;;;;;;;;;;20.40;60.80;;;;;;5050077;28;20283;-79
2022/04/23 11:43:31;;;;;;;;;;;20.50;60.60;;;;;;5055806;28;19909;-79
2022/04/23 11:46:06;;;;;;;;;;;20.50;61.00;;;;;;5056190;28;20276;-80
2022/04/23 11:48:46;;;;;;;;;;;20.60;57.60;;;;;;5057324;28;19905;-80
2022/04/23 11:51:12;;;;;;;;;;;20.70;58.20;;;;;;5050295;28;19909;-80
2022/04/23 11:53:57;;;;;;;;;;;20.90;59.10;;;;;;5046569;28;20032;-80
2022/04/23 11:56:24;;;;;;;;;;;20.90;59.00;;;;;;5036886;28;20277;-79
2022/04/23 11:58:53;;;;;;;;;;;21.00;60.30;;;;;;5036521;28;19912;-79
2022/04/23 12:01:23;;;;;;;;;;;21.10;59.40;;;;;;5036728;28;19999;-79
2022/04/23 12:03:49;;;;;;;;;;;21.20;55.10;;;;;;5036703;28;19909;-79
2022/04/23 12:06:15;;;;;;;;;;;21.30;56.10;;;;;;5036942;28;19932;-80
2022/04/23 12:08:40;;;;;;;;;;;21.20;54.90;;;;;;5033530;28;19905;-79
2022/04/23 12:11:19;;;;;;;;;;;21.30;52.70;;;;;;5036513;28;19908;-78
2022/04/23 12:13:48;;;;;;;;;;;21.20;53.50;;;;;;5034559;28;19995;-79
2022/04/23 12:16:33;;;;;;;;;;;21.00;53.50;;;;;;5035979;28;19912;-79
2022/04/23 12:18:59;;;;;;;;;;;20.80;53.30;;;;;;5034436;28;19923;-79
2022/04/23 12:21:25;;;;;;;;;;;20.60;52.50;;;;;;5036265;28;19931;-79
2022/04/23 12:23:50;;;;;;;;;;;20.50;54.60;;;;;;5047306;28;20349;-80
2022/04/23 12:26:19;;;;;;;;;;;20.50;55.80;;;;;;5055717;28;19991;-79
2022/04/23 12:42:25;;;;;;;;;;;20.80;55.40;;;;;;5036108;28;19951;-80
2022/04/23 12:44:52;;;;;;;;;;;20.90;54.40;;;;;;5035827;28;19905;-80
2022/04/23 12:47:33;;;;;;;;;;;20.90;54.30;;;;;;5042659;28;19919;-80
2022/04/23 12:50:03;;;;;;;;;;;20.90;53.50;;;;;;5054843;28;19912;-80
2022/04/23 12:52:28;;;;;;;;;;;20.90;54.60;;;;;;5056653;28;19939;-80
2022/04/23 12:55:13;;;;;;;;;;;20.90;54.90;;;;;;5055682;28;19905;-80
2022/04/23 12:57:42;;;;;;;;;;;20.90;55.60;;;;;;5053723;28;19909;-80
2022/04/23 13:00:12;;;;;;;;;;;20.90;54.90;;;;;;5055424;28;19909;-79
2022/04/23 13:02:39;;;;;;;;;;;20.80;54.50;;;;;;5054647;28;19911;-79
2022/04/23 13:05:06;;;;;;;;;;;20.80;55.50;;;;;;5054765;28;19904;-80
2022/04/23 13:10:16;;;;;;;;;;;20.70;55.60;;;;;;5053016;28;19916;-79
2022/04/23 13:12:41;;;;;;;;;;;20.80;56.20;;;;;;5054692;28;20350;-80
2022/04/23 13:15:07;;;;;;;;;;;20.90;57.20;;;;;;5053579;28;19908;-79
2022/04/23 13:17:33;;;;;;;;;;;20.90;58.10;;;;;;5054569;28;20420;-79
2022/04/23 13:20:01;;;;;;;;;;;20.90;59.10;;;;;;5049022;28;20281;-80
2022/04/23 13:22:27;;;;;;;;;;;20.90;59.50;;;;;;5034478;28;20365;-80
2022/04/23 13:24:53;;;;;;;;;;;21.00;57.50;;;;;;5034619;28;20043;-80
2022/04/23 13:27:19;;;;;;;;;;;20.80;57.40;;;;;;5034392;28;19909;-80
2022/04/23 13:29:44;;;;;;;;;;;20.70;58.40;;;;;;5040834;28;19904;-80
2022/04/23 13:32:10;;;;;;;;;;;20.70;58.40;;;;;;5054326;28;19912;-79
2022/04/23 13:34:36;;;;;;;;;;;20.70;59.40;;;;;;5054077;28;19928;-80
2022/04/23 13:37:02;;;;;;;;;;;20.70;58.90;;;;;;5052557;28;19943;-80
2022/04/23 13:39:28;;;;;;;;;;;20.70;58.10;;;;;;5052448;28;19959;-80
2022/04/23 13:41:53;;;;;;;;;;;20.60;58.10;;;;;;5054185;28;20010;-80
2022/04/23 13:44:19;;;;;;;;;;;20.50;58.40;;;;;;5052445;28;19911;-79
2022/04/23 13:46:45;;;;;;;;;;;20.40;58.10;;;;;;5053697;28;19996;-79